TVS152 LKPR-LEPA
Flight info
| Callsign | TVS152 |
|---|---|
| Flight time | 2h 18m |
| Altitude | 35000 |
| Route | DOBEN5B DOBEN DCT RUDAP P31 DOSEL DCT EBEDA DCT BADVI DCT BERAS DCT OLPIX DCT EKPEB DCT PIDAD DCT TALEP DCT RARQU DCT BALEN UT250 RIXOT RIXOT2M |
| Aircraft | B738/M-SDE2E3FGHIRWXY/LB1 |
Departure
| Time | 2026-05-07 17:16 |
|---|---|
| Airport | Václav Havel Airport Prague (LKPR) |
Arrival
| Time | 2026-05-07 19:34 |
|---|---|
| Airport | Palma de Mallorca Airport (LEPA) |
| Time | Latitude | Longitude | Altitude | Speed | Heading |
|---|---|---|---|---|---|
| 2026-05-07 16:39 | 50.10893 | 14.25719 | 1161 ft | 0 kts | 304° |
| 2026-05-07 17:05 | 50.10887 | 14.25733 | 1162 ft | 4 kts | 301° |
| 2026-05-07 17:05 | 50.10876 | 14.25770 | 1161 ft | 4 kts | 284° |
| 2026-05-07 17:05 | 50.10874 | 14.25809 | 1162 ft | 4 kts | 247° |
| 2026-05-07 17:05 | 50.10882 | 14.25826 | 1162 ft | 1 kts | 214° |
| 2026-05-07 17:08 | 50.10862 | 14.25806 | 1164 ft | 6 kts | 214° |
| 2026-05-07 17:08 | 50.10830 | 14.25772 | 1164 ft | 5 kts | 214° |
| 2026-05-07 17:08 | 50.10799 | 14.25738 | 1167 ft | 7 kts | 215° |
| 2026-05-07 17:08 | 50.10753 | 14.25689 | 1168 ft | 8 kts | 214° |
| 2026-05-07 17:09 | 50.10705 | 14.25640 | 1170 ft | 9 kts | 214° |
| 2026-05-07 17:09 | 50.10650 | 14.25626 | 1171 ft | 9 kts | 154° |
| 2026-05-07 17:09 | 50.10613 | 14.25705 | 1173 ft | 10 kts | 118° |
| 2026-05-07 17:09 | 50.10577 | 14.25801 | 1174 ft | 10 kts | 122° |
| 2026-05-07 17:10 | 50.10536 | 14.25899 | 1171 ft | 11 kts | 124° |
| 2026-05-07 17:10 | 50.10491 | 14.25994 | 1170 ft | 11 kts | 127° |
| 2026-05-07 17:10 | 50.10446 | 14.26086 | 1170 ft | 10 kts | 127° |
| 2026-05-07 17:10 | 50.10403 | 14.26175 | 1173 ft | 10 kts | 127° |
| 2026-05-07 17:11 | 50.10332 | 14.26322 | 1174 ft | 20 kts | 127° |
| 2026-05-07 17:11 | 50.10249 | 14.26493 | 1176 ft | 20 kts | 127° |
| 2026-05-07 17:11 | 50.10165 | 14.26669 | 1177 ft | 21 kts | 127° |
| 2026-05-07 17:11 | 50.10080 | 14.26844 | 1186 ft | 20 kts | 127° |
| 2026-05-07 17:12 | 50.09998 | 14.27013 | 1195 ft | 19 kts | 127° |
| 2026-05-07 17:12 | 50.09919 | 14.27177 | 1200 ft | 19 kts | 127° |
| 2026-05-07 17:12 | 50.09840 | 14.27333 | 1202 ft | 18 kts | 134° |
| 2026-05-07 17:12 | 50.09751 | 14.27467 | 1205 ft | 17 kts | 136° |
| 2026-05-07 17:13 | 50.09667 | 14.27598 | 1206 ft | 17 kts | 134° |
| 2026-05-07 17:13 | 50.09586 | 14.27723 | 1210 ft | 16 kts | 135° |
| 2026-05-07 17:13 | 50.09508 | 14.27844 | 1213 ft | 16 kts | 135° |
| 2026-05-07 17:13 | 50.09432 | 14.27959 | 1214 ft | 15 kts | 135° |
| 2026-05-07 17:14 | 50.09359 | 14.28069 | 1213 ft | 14 kts | 135° |
| 2026-05-07 17:14 | 50.09291 | 14.28174 | 1213 ft | 13 kts | 135° |
| 2026-05-07 17:14 | 50.09217 | 14.28275 | 1211 ft | 15 kts | 154° |
| 2026-05-07 17:14 | 50.09125 | 14.28240 | 1210 ft | 14 kts | 217° |
| 2026-05-07 17:15 | 50.09074 | 14.28120 | 1207 ft | 14 kts | 275° |
| 2026-05-07 17:15 | 50.09122 | 14.28008 | 1209 ft | 21 kts | 308° |
| 2026-05-07 17:15 | 50.09383 | 14.27464 | 1209 ft | 104 kts | 307° |
| 2026-05-07 17:15 | 50.09963 | 14.26251 | 1293 ft | 167 kts | 305° |
| 2026-05-07 17:16 | 50.10735 | 14.24706 | 2089 ft | 195 kts | 309° |
| 2026-05-07 17:16 | 50.11609 | 14.23040 | 2955 ft | 196 kts | 307° |
| 2026-05-07 17:16 | 50.12431 | 14.21298 | 3657 ft | 203 kts | 305° |
| 2026-05-07 17:16 | 50.13274 | 14.19482 | 4345 ft | 209 kts | 304° |
| 2026-05-07 17:17 | 50.14124 | 14.17677 | 4832 ft | 202 kts | 305° |
| 2026-05-07 17:17 | 50.14948 | 14.15950 | 4960 ft | 196 kts | 304° |
| 2026-05-07 17:17 | 50.15765 | 14.14246 | 4997 ft | 196 kts | 304° |
| 2026-05-07 17:17 | 50.16601 | 14.12502 | 5012 ft | 215 kts | 305° |
| 2026-05-07 17:18 | 50.17466 | 14.10448 | 5332 ft | 232 kts | 286° |
| 2026-05-07 17:18 | 50.17557 | 14.07913 | 5598 ft | 252 kts | 251° |
| 2026-05-07 17:18 | 50.16561 | 14.05652 | 6155 ft | 261 kts | 217° |
| 2026-05-07 17:18 | 50.14997 | 14.04128 | 6947 ft | 263 kts | 210° |
| 2026-05-07 17:19 | 50.13385 | 14.02750 | 7762 ft | 265 kts | 208° |
| 2026-05-07 17:19 | 50.11774 | 14.01399 | 8568 ft | 268 kts | 208° |
| 2026-05-07 17:19 | 50.10129 | 14.00016 | 9387 ft | 270 kts | 209° |
| 2026-05-07 17:19 | 50.08558 | 13.98684 | 10138 ft | 272 kts | 209° |
| 2026-05-07 17:20 | 50.06852 | 13.97228 | 10516 ft | 291 kts | 210° |
| 2026-05-07 17:20 | 50.05011 | 13.95648 | 10696 ft | 314 kts | 210° |
| 2026-05-07 17:20 | 50.03028 | 13.93940 | 10866 ft | 336 kts | 210° |
| 2026-05-07 17:20 | 50.00922 | 13.92123 | 11065 ft | 355 kts | 210° |
| 2026-05-07 17:21 | 49.98738 | 13.90237 | 11623 ft | 362 kts | 210° |
| 2026-05-07 17:21 | 49.96527 | 13.88326 | 12305 ft | 364 kts | 210° |
| 2026-05-07 17:21 | 49.94305 | 13.86406 | 12997 ft | 367 kts | 210° |
| 2026-05-07 17:21 | 49.92062 | 13.84466 | 13664 ft | 371 kts | 210° |
| 2026-05-07 17:22 | 49.89799 | 13.82510 | 14276 ft | 374 kts | 210° |
| 2026-05-07 17:22 | 49.87522 | 13.80544 | 14875 ft | 377 kts | 210° |
| 2026-05-07 17:22 | 49.85223 | 13.78560 | 15467 ft | 380 kts | 210° |
| 2026-05-07 17:22 | 49.82905 | 13.76563 | 16071 ft | 382 kts | 210° |
| 2026-05-07 17:23 | 49.80573 | 13.74554 | 16661 ft | 385 kts | 210° |
| 2026-05-07 17:23 | 49.78221 | 13.72532 | 17216 ft | 388 kts | 210° |
| 2026-05-07 17:23 | 49.75848 | 13.70493 | 17784 ft | 392 kts | 210° |
| 2026-05-07 17:23 | 49.73459 | 13.68444 | 18357 ft | 394 kts | 210° |
| 2026-05-07 17:24 | 49.71053 | 13.66381 | 18850 ft | 396 kts | 210° |
| 2026-05-07 17:24 | 49.68631 | 13.64308 | 19325 ft | 399 kts | 210° |
| 2026-05-07 17:24 | 49.66198 | 13.62227 | 19832 ft | 401 kts | 210° |
| 2026-05-07 17:24 | 49.63753 | 13.60139 | 20318 ft | 403 kts | 210° |
| 2026-05-07 17:25 | 49.61293 | 13.58040 | 20770 ft | 406 kts | 210° |
| 2026-05-07 17:25 | 49.58816 | 13.55929 | 21221 ft | 408 kts | 210° |
| 2026-05-07 17:25 | 49.56321 | 13.53808 | 21674 ft | 411 kts | 210° |
| 2026-05-07 17:25 | 49.53815 | 13.51679 | 22131 ft | 413 kts | 210° |
| 2026-05-07 17:26 | 49.51292 | 13.49537 | 22566 ft | 415 kts | 210° |
| 2026-05-07 17:26 | 49.48755 | 13.47385 | 22971 ft | 418 kts | 210° |
| 2026-05-07 17:26 | 49.46204 | 13.45224 | 23372 ft | 420 kts | 210° |
| 2026-05-07 17:26 | 49.43634 | 13.43049 | 23756 ft | 422 kts | 210° |
| 2026-05-07 17:27 | 49.41059 | 13.40872 | 24097 ft | 424 kts | 210° |
| 2026-05-07 17:27 | 49.38466 | 13.38684 | 24424 ft | 426 kts | 210° |
| 2026-05-07 17:27 | 49.35860 | 13.36486 | 24760 ft | 428 kts | 210° |
| 2026-05-07 17:27 | 49.33246 | 13.34285 | 25085 ft | 429 kts | 210° |
| 2026-05-07 17:28 | 49.30621 | 13.32076 | 25402 ft | 431 kts | 210° |
| 2026-05-07 17:28 | 49.27983 | 13.29858 | 25700 ft | 433 kts | 210° |
| 2026-05-07 17:28 | 49.25322 | 13.27626 | 25996 ft | 435 kts | 210° |
| 2026-05-07 17:28 | 49.22654 | 13.25420 | 26293 ft | 437 kts | 209° |
| 2026-05-07 17:29 | 49.19932 | 13.23333 | 26567 ft | 439 kts | 208° |
| 2026-05-07 17:29 | 49.17179 | 13.21284 | 26832 ft | 441 kts | 208° |
| 2026-05-07 17:29 | 49.14419 | 13.19213 | 27091 ft | 443 kts | 208° |
| 2026-05-07 17:29 | 49.11662 | 13.17126 | 27454 ft | 442 kts | 208° |
| 2026-05-07 17:30 | 49.08911 | 13.15066 | 27908 ft | 439 kts | 208° |
| 2026-05-07 17:30 | 49.06164 | 13.13033 | 28357 ft | 437 kts | 208° |
| 2026-05-07 17:30 | 49.03422 | 13.11010 | 28724 ft | 437 kts | 208° |
| 2026-05-07 17:30 | 49.00693 | 13.08998 | 29130 ft | 436 kts | 208° |
| 2026-05-07 17:31 | 48.97963 | 13.06987 | 29558 ft | 434 kts | 208° |
| 2026-05-07 17:31 | 48.95251 | 13.04988 | 29966 ft | 433 kts | 208° |
| 2026-05-07 17:31 | 48.92544 | 13.02993 | 30265 ft | 432 kts | 208° |
| 2026-05-07 17:31 | 48.89840 | 13.01002 | 30582 ft | 431 kts | 208° |
| 2026-05-07 17:32 | 48.88050 | 12.99685 | 30805 ft | 430 kts | 208° |
| 2026-05-07 17:32 | 48.85363 | 12.97711 | 31169 ft | 428 kts | 208° |
| 2026-05-07 17:32 | 48.82681 | 12.95742 | 31467 ft | 428 kts | 208° |
| 2026-05-07 17:32 | 48.80003 | 12.93778 | 31756 ft | 427 kts | 208° |
| 2026-05-07 17:33 | 48.77322 | 12.91815 | 32073 ft | 426 kts | 208° |
| 2026-05-07 17:33 | 48.74676 | 12.89820 | 32383 ft | 424 kts | 212° |
| 2026-05-07 17:33 | 48.72201 | 12.87407 | 32629 ft | 422 kts | 219° |
| 2026-05-07 17:33 | 48.70000 | 12.84498 | 32915 ft | 420 kts | 224° |
| 2026-05-07 17:34 | 48.67874 | 12.81470 | 33233 ft | 418 kts | 224° |
| 2026-05-07 17:34 | 48.65752 | 12.78464 | 33521 ft | 418 kts | 224° |
| 2026-05-07 17:34 | 48.63621 | 12.75479 | 33766 ft | 418 kts | 224° |
| 2026-05-07 17:34 | 48.61483 | 12.72511 | 34050 ft | 417 kts | 223° |
| 2026-05-07 17:35 | 48.59347 | 12.69555 | 34256 ft | 417 kts | 223° |
| 2026-05-07 17:35 | 48.57209 | 12.66586 | 34416 ft | 418 kts | 224° |
| 2026-05-07 17:35 | 48.55071 | 12.63609 | 34554 ft | 419 kts | 224° |
| 2026-05-07 17:35 | 48.52924 | 12.60621 | 34744 ft | 419 kts | 224° |
| 2026-05-07 17:36 | 48.50780 | 12.57639 | 34950 ft | 419 kts | 224° |
| 2026-05-07 17:36 | 48.48632 | 12.54657 | 35021 ft | 421 kts | 224° |
| 2026-05-07 17:36 | 48.44309 | 12.48668 | 35021 ft | 422 kts | 224° |
| 2026-05-07 17:37 | 48.39910 | 12.42884 | 35021 ft | 418 kts | 221° |
| 2026-05-07 17:37 | 48.35447 | 12.37284 | 35020 ft | 416 kts | 221° |
| 2026-05-07 17:38 | 48.31022 | 12.31703 | 35033 ft | 415 kts | 221° |
| 2026-05-07 17:38 | 48.26610 | 12.26110 | 35029 ft | 415 kts | 221° |
| 2026-05-07 17:39 | 48.22163 | 12.20478 | 35030 ft | 417 kts | 221° |
| 2026-05-07 17:39 | 48.17686 | 12.15007 | 35024 ft | 420 kts | 216° |
| 2026-05-07 17:40 | 48.12426 | 12.11064 | 35017 ft | 429 kts | 200° |
| 2026-05-07 17:40 | 48.06663 | 12.08617 | 35022 ft | 432 kts | 199° |
| 2026-05-07 17:41 | 48.00859 | 12.06224 | 35020 ft | 434 kts | 199° |
| 2026-05-07 17:41 | 47.95006 | 12.03763 | 35027 ft | 435 kts | 199° |
| 2026-05-07 17:42 | 47.89176 | 12.01292 | 35020 ft | 436 kts | 199° |
| 2026-05-07 17:42 | 47.83346 | 11.98824 | 35020 ft | 435 kts | 199° |
| 2026-05-07 17:43 | 47.77559 | 11.96380 | 35015 ft | 434 kts | 199° |
| 2026-05-07 17:43 | 47.71762 | 11.93921 | 35017 ft | 431 kts | 200° |
| 2026-05-07 17:44 | 47.66060 | 11.91243 | 35014 ft | 428 kts | 202° |
| 2026-05-07 17:44 | 47.60397 | 11.88518 | 35019 ft | 430 kts | 201° |
| 2026-05-07 17:45 | 47.54666 | 11.85798 | 35017 ft | 433 kts | 201° |
| 2026-05-07 17:45 | 47.48935 | 11.83105 | 35014 ft | 431 kts | 201° |
| 2026-05-07 17:46 | 47.43221 | 11.80426 | 35019 ft | 430 kts | 201° |
| 2026-05-07 17:46 | 47.37506 | 11.77751 | 35011 ft | 431 kts | 201° |
| 2026-05-07 17:47 | 47.31613 | 11.75882 | 35027 ft | 436 kts | 193° |
| 2026-05-07 17:47 | 47.25597 | 11.74544 | 35005 ft | 437 kts | 193° |
| 2026-05-07 17:48 | 47.19591 | 11.73174 | 35003 ft | 437 kts | 194° |
| 2026-05-07 17:48 | 47.13594 | 11.71774 | 35006 ft | 435 kts | 194° |
| 2026-05-07 17:49 | 47.07619 | 11.70379 | 35013 ft | 434 kts | 194° |
| 2026-05-07 17:49 | 47.01683 | 11.68775 | 35008 ft | 432 kts | 200° |
| 2026-05-07 17:50 | 46.96162 | 11.65417 | 34998 ft | 431 kts | 209° |
| 2026-05-07 17:50 | 46.90722 | 11.61688 | 35014 ft | 432 kts | 209° |
| 2026-05-07 17:51 | 46.85251 | 11.58001 | 34999 ft | 433 kts | 209° |
| 2026-05-07 17:51 | 46.79781 | 11.54358 | 34979 ft | 430 kts | 209° |
| 2026-05-07 17:52 | 46.74375 | 11.50767 | 34981 ft | 425 kts | 209° |
| 2026-05-07 17:52 | 46.69008 | 11.47153 | 34976 ft | 423 kts | 212° |
| 2026-05-07 17:53 | 46.64075 | 11.42592 | 34966 ft | 419 kts | 217° |
| 2026-05-07 17:53 | 46.59221 | 11.37874 | 34953 ft | 420 kts | 218° |
| 2026-05-07 17:54 | 46.54349 | 11.33170 | 34934 ft | 420 kts | 218° |
| 2026-05-07 17:54 | 46.49470 | 11.28497 | 34942 ft | 421 kts | 217° |
| 2026-05-07 17:55 | 46.44574 | 11.23830 | 34941 ft | 421 kts | 218° |
| 2026-05-07 17:55 | 46.39666 | 11.19164 | 35064 ft | 423 kts | 218° |
| 2026-05-07 17:56 | 46.34734 | 11.14484 | 35074 ft | 424 kts | 218° |
| 2026-05-07 17:56 | 46.29792 | 11.09802 | 35069 ft | 425 kts | 218° |
| 2026-05-07 17:57 | 46.25642 | 11.05881 | 35079 ft | 425 kts | 218° |
| 2026-05-07 17:57 | 46.19892 | 11.00461 | 35065 ft | 423 kts | 218° |
| 2026-05-07 17:58 | 46.14969 | 10.95831 | 35061 ft | 422 kts | 218° |
| 2026-05-07 17:58 | 46.10060 | 10.91223 | 35055 ft | 420 kts | 218° |
| 2026-05-07 17:59 | 46.05166 | 10.86639 | 35060 ft | 419 kts | 218° |
| 2026-05-07 17:59 | 46.00274 | 10.82066 | 35043 ft | 419 kts | 218° |
| 2026-05-07 18:00 | 45.95377 | 10.77499 | 35031 ft | 419 kts | 218° |
| 2026-05-07 18:00 | 45.90486 | 10.72946 | 35023 ft | 420 kts | 218° |
| 2026-05-07 18:01 | 45.85573 | 10.68382 | 35011 ft | 421 kts | 218° |
| 2026-05-07 18:01 | 45.80635 | 10.63807 | 35010 ft | 422 kts | 218° |
| 2026-05-07 18:02 | 45.73253 | 10.56988 | 34987 ft | 419 kts | 217° |
| 2026-05-07 18:03 | 45.68353 | 10.52472 | 34992 ft | 419 kts | 218° |
| 2026-05-07 18:03 | 45.63440 | 10.47951 | 34974 ft | 421 kts | 217° |
| 2026-05-07 18:04 | 45.58522 | 10.43437 | 34964 ft | 420 kts | 217° |
| 2026-05-07 18:04 | 45.53606 | 10.38935 | 34960 ft | 419 kts | 217° |
| 2026-05-07 18:05 | 45.48700 | 10.34450 | 34964 ft | 419 kts | 217° |
| 2026-05-07 18:05 | 45.44022 | 10.30184 | 34965 ft | 419 kts | 217° |
| 2026-05-07 18:06 | 45.39117 | 10.25718 | 34939 ft | 418 kts | 217° |
| 2026-05-07 18:06 | 45.34216 | 10.21267 | 34936 ft | 418 kts | 217° |
| 2026-05-07 18:07 | 45.29322 | 10.16831 | 34938 ft | 417 kts | 217° |
| 2026-05-07 18:07 | 45.24429 | 10.12404 | 34942 ft | 417 kts | 217° |
| 2026-05-07 18:08 | 45.19537 | 10.07988 | 34949 ft | 416 kts | 217° |
| 2026-05-07 18:08 | 45.14647 | 10.03583 | 34959 ft | 416 kts | 217° |
| 2026-05-07 18:09 | 45.10552 | 9.99901 | 34959 ft | 416 kts | 217° |
| 2026-05-07 18:09 | 45.05662 | 9.95513 | 34952 ft | 416 kts | 217° |
| 2026-05-07 18:10 | 45.00778 | 9.91138 | 34947 ft | 416 kts | 217° |
| 2026-05-07 18:10 | 44.95891 | 9.86771 | 34939 ft | 415 kts | 217° |
| 2026-05-07 18:11 | 44.91008 | 9.82415 | 34942 ft | 415 kts | 217° |
| 2026-05-07 18:11 | 44.86153 | 9.78093 | 34939 ft | 414 kts | 217° |
| 2026-05-07 18:12 | 44.81284 | 9.73768 | 34929 ft | 413 kts | 217° |
| 2026-05-07 18:12 | 44.76396 | 9.69435 | 34947 ft | 413 kts | 217° |
| 2026-05-07 18:13 | 44.72218 | 9.65738 | 34948 ft | 412 kts | 217° |
| 2026-05-07 18:13 | 44.67360 | 9.61447 | 34959 ft | 412 kts | 217° |
| 2026-05-07 18:14 | 44.62506 | 9.57168 | 34983 ft | 412 kts | 217° |
| 2026-05-07 18:14 | 44.57982 | 9.53188 | 34990 ft | 412 kts | 217° |
| 2026-05-07 18:15 | 44.53098 | 9.48901 | 34994 ft | 411 kts | 217° |
| 2026-05-07 18:15 | 44.48274 | 9.44672 | 34985 ft | 412 kts | 217° |
| 2026-05-07 18:16 | 44.43415 | 9.40422 | 34998 ft | 411 kts | 217° |
| 2026-05-07 18:16 | 44.38555 | 9.36179 | 35006 ft | 413 kts | 217° |
| 2026-05-07 18:17 | 44.33678 | 9.31931 | 34989 ft | 412 kts | 217° |
| 2026-05-07 18:17 | 44.28817 | 9.27707 | 34991 ft | 410 kts | 217° |
| 2026-05-07 18:18 | 44.23982 | 9.23513 | 34989 ft | 408 kts | 217° |
| 2026-05-07 18:18 | 44.19136 | 9.19317 | 34992 ft | 406 kts | 217° |
| 2026-05-07 18:19 | 44.14370 | 9.15197 | 34990 ft | 405 kts | 217° |
| 2026-05-07 18:19 | 44.09555 | 9.11043 | 34991 ft | 404 kts | 217° |
| 2026-05-07 18:20 | 44.04782 | 9.06933 | 34992 ft | 403 kts | 217° |
| 2026-05-07 18:20 | 44.00006 | 9.02829 | 34993 ft | 403 kts | 217° |
| 2026-05-07 18:21 | 43.95230 | 8.98732 | 34991 ft | 404 kts | 217° |
| 2026-05-07 18:21 | 43.90446 | 8.94636 | 34993 ft | 404 kts | 217° |
| 2026-05-07 18:22 | 43.85657 | 8.90544 | 34985 ft | 405 kts | 217° |
| 2026-05-07 18:22 | 43.80858 | 8.86451 | 34985 ft | 405 kts | 217° |
| 2026-05-07 18:23 | 43.76059 | 8.82365 | 34980 ft | 406 kts | 217° |
| 2026-05-07 18:23 | 43.71241 | 8.78270 | 34982 ft | 406 kts | 217° |
| 2026-05-07 18:24 | 43.66440 | 8.74248 | 34984 ft | 408 kts | 213° |
| 2026-05-07 18:24 | 43.60991 | 8.71675 | 34982 ft | 421 kts | 199° |
| 2026-05-07 18:25 | 43.55031 | 8.71098 | 34995 ft | 432 kts | 187° |
| 2026-05-07 18:25 | 43.49093 | 8.70968 | 34968 ft | 421 kts | 198° |
| 2026-05-07 18:25 | 43.46300 | 8.69835 | 34998 ft | 408 kts | 209° |
| 2026-05-07 18:26 | 43.43804 | 8.68068 | 34985 ft | 401 kts | 218° |
| 2026-05-07 18:26 | 43.39614 | 8.63163 | 34982 ft | 395 kts | 226° |
| 2026-05-07 18:27 | 43.35555 | 8.58077 | 34985 ft | 395 kts | 226° |
| 2026-05-07 18:27 | 43.31481 | 8.53017 | 34983 ft | 395 kts | 225° |
| 2026-05-07 18:28 | 43.27388 | 8.47968 | 34983 ft | 396 kts | 225° |
| 2026-05-07 18:28 | 43.23290 | 8.42929 | 34984 ft | 396 kts | 225° |
| 2026-05-07 18:29 | 43.19185 | 8.37893 | 34982 ft | 396 kts | 225° |
| 2026-05-07 18:29 | 43.15074 | 8.32860 | 34982 ft | 396 kts | 225° |
| 2026-05-07 18:30 | 43.10962 | 8.27834 | 34983 ft | 396 kts | 224° |
| 2026-05-07 18:30 | 43.06851 | 8.22819 | 34986 ft | 396 kts | 224° |
| 2026-05-07 18:31 | 43.02740 | 8.17814 | 34984 ft | 395 kts | 224° |
| 2026-05-07 18:31 | 42.98632 | 8.12820 | 34983 ft | 395 kts | 224° |
| 2026-05-07 18:32 | 42.94526 | 8.07840 | 34983 ft | 395 kts | 224° |
| 2026-05-07 18:32 | 42.90423 | 8.02870 | 34984 ft | 394 kts | 224° |
| 2026-05-07 18:33 | 42.86319 | 7.97910 | 34983 ft | 394 kts | 224° |
| 2026-05-07 18:33 | 42.82214 | 7.92958 | 34981 ft | 394 kts | 224° |
| 2026-05-07 18:34 | 42.78101 | 7.88005 | 34978 ft | 395 kts | 224° |
| 2026-05-07 18:34 | 42.73988 | 7.83061 | 34981 ft | 395 kts | 223° |
| 2026-05-07 18:35 | 42.69872 | 7.78123 | 34979 ft | 394 kts | 223° |
| 2026-05-07 18:35 | 42.65756 | 7.73194 | 34978 ft | 394 kts | 223° |
| 2026-05-07 18:36 | 42.61640 | 7.68274 | 34976 ft | 394 kts | 223° |
| 2026-05-07 18:36 | 42.57525 | 7.63364 | 34978 ft | 394 kts | 223° |
| 2026-05-07 18:37 | 42.53402 | 7.58453 | 34975 ft | 394 kts | 223° |
| 2026-05-07 18:37 | 42.49284 | 7.53557 | 34978 ft | 394 kts | 223° |
| 2026-05-07 18:38 | 42.45160 | 7.48664 | 34975 ft | 394 kts | 223° |
| 2026-05-07 18:38 | 42.41036 | 7.43779 | 34976 ft | 394 kts | 223° |
| 2026-05-07 18:39 | 42.36905 | 7.38894 | 34979 ft | 394 kts | 222° |
| 2026-05-07 18:39 | 42.32776 | 7.34021 | 34977 ft | 394 kts | 222° |
| 2026-05-07 18:40 | 42.28672 | 7.29186 | 34978 ft | 394 kts | 222° |
| 2026-05-07 18:40 | 42.24511 | 7.24292 | 34978 ft | 394 kts | 222° |
| 2026-05-07 18:41 | 42.20370 | 7.19432 | 34975 ft | 394 kts | 222° |
| 2026-05-07 18:41 | 42.16226 | 7.14575 | 34971 ft | 395 kts | 222° |
| 2026-05-07 18:42 | 42.12083 | 7.09729 | 34972 ft | 395 kts | 222° |
| 2026-05-07 18:42 | 42.07933 | 7.04883 | 34971 ft | 395 kts | 221° |
| 2026-05-07 18:43 | 42.03778 | 7.00039 | 34972 ft | 395 kts | 221° |
| 2026-05-07 18:43 | 41.99656 | 6.95153 | 34971 ft | 395 kts | 223° |
| 2026-05-07 18:44 | 41.95602 | 6.90157 | 34971 ft | 396 kts | 223° |
| 2026-05-07 18:44 | 41.92233 | 6.85997 | 34969 ft | 396 kts | 223° |
| 2026-05-07 18:45 | 41.88165 | 6.81001 | 34971 ft | 396 kts | 223° |
| 2026-05-07 18:45 | 41.84083 | 6.76009 | 34972 ft | 397 kts | 222° |
| 2026-05-07 18:46 | 41.80001 | 6.71030 | 34968 ft | 397 kts | 222° |
| 2026-05-07 18:46 | 41.75910 | 6.66051 | 34964 ft | 398 kts | 222° |
| 2026-05-07 18:47 | 41.71813 | 6.61073 | 34968 ft | 398 kts | 222° |
| 2026-05-07 18:47 | 41.67708 | 6.56095 | 34968 ft | 398 kts | 222° |
| 2026-05-07 18:48 | 41.63596 | 6.51116 | 34969 ft | 399 kts | 222° |
| 2026-05-07 18:48 | 41.59476 | 6.46138 | 34964 ft | 399 kts | 222° |
| 2026-05-07 18:49 | 41.55352 | 6.41162 | 34963 ft | 400 kts | 221° |
| 2026-05-07 18:49 | 41.51220 | 6.36187 | 34968 ft | 400 kts | 221° |
| 2026-05-07 18:50 | 41.47079 | 6.31209 | 34965 ft | 400 kts | 221° |
| 2026-05-07 18:50 | 41.42938 | 6.26241 | 34964 ft | 401 kts | 221° |
| 2026-05-07 18:51 | 41.38788 | 6.21269 | 34966 ft | 401 kts | 221° |
| 2026-05-07 18:51 | 41.34633 | 6.16302 | 34964 ft | 402 kts | 221° |
| 2026-05-07 18:52 | 41.30473 | 6.11337 | 34963 ft | 402 kts | 221° |
| 2026-05-07 18:52 | 41.26305 | 6.06371 | 34961 ft | 403 kts | 221° |
| 2026-05-07 18:53 | 41.22128 | 6.01405 | 34963 ft | 403 kts | 221° |
| 2026-05-07 18:53 | 41.17943 | 5.96436 | 34961 ft | 404 kts | 221° |
| 2026-05-07 18:54 | 41.13751 | 5.91469 | 34961 ft | 404 kts | 221° |
| 2026-05-07 18:54 | 41.09551 | 5.86500 | 34963 ft | 405 kts | 221° |
| 2026-05-07 18:55 | 41.05340 | 5.81527 | 34958 ft | 405 kts | 221° |
| 2026-05-07 18:55 | 41.01124 | 5.76557 | 34958 ft | 406 kts | 221° |
| 2026-05-07 18:56 | 40.96902 | 5.71589 | 34956 ft | 406 kts | 221° |
| 2026-05-07 18:56 | 40.93070 | 5.66108 | 34951 ft | 407 kts | 233° |
| 2026-05-07 18:57 | 40.89831 | 5.59980 | 34954 ft | 407 kts | 233° |
| 2026-05-07 18:57 | 40.86583 | 5.53870 | 34952 ft | 406 kts | 233° |
| 2026-05-07 18:58 | 40.83341 | 5.47819 | 34958 ft | 406 kts | 233° |
| 2026-05-07 18:58 | 40.80071 | 5.41742 | 34957 ft | 406 kts | 233° |
| 2026-05-07 18:59 | 40.76788 | 5.35656 | 34958 ft | 408 kts | 233° |
| 2026-05-07 18:59 | 40.73494 | 5.29560 | 34950 ft | 408 kts | 233° |
| 2026-05-07 19:00 | 40.70189 | 5.23458 | 34491 ft | 413 kts | 232° |
| 2026-05-07 19:00 | 40.68521 | 5.20381 | 33882 ft | 412 kts | 232° |
| 2026-05-07 19:00 | 40.66857 | 5.17314 | 33137 ft | 412 kts | 232° |
| 2026-05-07 19:00 | 40.65192 | 5.14249 | 32406 ft | 412 kts | 232° |
| 2026-05-07 19:01 | 40.63524 | 5.11181 | 31666 ft | 412 kts | 232° |
| 2026-05-07 19:01 | 40.61851 | 5.08109 | 30920 ft | 414 kts | 232° |
| 2026-05-07 19:01 | 40.60169 | 5.05023 | 30162 ft | 415 kts | 232° |
| 2026-05-07 19:01 | 40.58489 | 5.01941 | 29540 ft | 413 kts | 232° |
| 2026-05-07 19:02 | 40.56823 | 4.98889 | 28909 ft | 409 kts | 232° |
| 2026-05-07 19:02 | 40.55173 | 4.95869 | 28358 ft | 404 kts | 232° |
| 2026-05-07 19:02 | 40.53540 | 4.92883 | 27786 ft | 400 kts | 232° |
| 2026-05-07 19:02 | 40.51922 | 4.89928 | 27245 ft | 397 kts | 232° |
| 2026-05-07 19:03 | 40.50318 | 4.87002 | 26698 ft | 393 kts | 232° |
| 2026-05-07 19:03 | 40.48726 | 4.84099 | 26177 ft | 390 kts | 232° |
| 2026-05-07 19:03 | 40.47142 | 4.81215 | 25656 ft | 388 kts | 232° |
| 2026-05-07 19:03 | 40.45565 | 4.78345 | 25135 ft | 386 kts | 232° |
| 2026-05-07 19:04 | 40.43996 | 4.75494 | 24610 ft | 386 kts | 232° |
| 2026-05-07 19:04 | 40.42405 | 4.72625 | 24053 ft | 389 kts | 232° |
| 2026-05-07 19:04 | 40.40810 | 4.69763 | 23533 ft | 388 kts | 232° |
| 2026-05-07 19:04 | 40.39220 | 4.66914 | 22938 ft | 386 kts | 232° |
| 2026-05-07 19:05 | 40.37658 | 4.64103 | 22634 ft | 378 kts | 233° |
| 2026-05-07 19:05 | 40.36114 | 4.61310 | 22349 ft | 383 kts | 233° |
| 2026-05-07 19:05 | 40.34520 | 4.58428 | 22059 ft | 395 kts | 233° |
| 2026-05-07 19:05 | 40.32897 | 4.55493 | 21750 ft | 400 kts | 233° |
| 2026-05-07 19:06 | 40.31268 | 4.52548 | 21430 ft | 397 kts | 233° |
| 2026-05-07 19:06 | 40.28046 | 4.46730 | 20827 ft | 392 kts | 233° |
| 2026-05-07 19:06 | 40.26445 | 4.43845 | 20540 ft | 392 kts | 233° |
| 2026-05-07 19:07 | 40.24840 | 4.40958 | 20248 ft | 392 kts | 233° |
| 2026-05-07 19:07 | 40.23236 | 4.38074 | 19954 ft | 391 kts | 232° |
| 2026-05-07 19:07 | 40.21641 | 4.35209 | 19661 ft | 389 kts | 232° |
| 2026-05-07 19:07 | 40.20050 | 4.32353 | 19366 ft | 388 kts | 232° |
| 2026-05-07 19:08 | 40.18459 | 4.29500 | 19077 ft | 387 kts | 232° |
| 2026-05-07 19:08 | 40.16872 | 4.26659 | 18787 ft | 386 kts | 232° |
| 2026-05-07 19:08 | 40.15295 | 4.23836 | 18497 ft | 385 kts | 232° |
| 2026-05-07 19:08 | 40.13714 | 4.21009 | 18202 ft | 384 kts | 232° |
| 2026-05-07 19:09 | 40.12138 | 4.18195 | 17868 ft | 383 kts | 232° |
| 2026-05-07 19:09 | 40.10568 | 4.15393 | 17556 ft | 382 kts | 232° |
| 2026-05-07 19:09 | 40.08998 | 4.12593 | 17258 ft | 381 kts | 232° |
| 2026-05-07 19:09 | 40.07436 | 4.09811 | 16968 ft | 379 kts | 232° |
| 2026-05-07 19:10 | 40.05878 | 4.07038 | 16679 ft | 378 kts | 232° |
| 2026-05-07 19:10 | 40.04321 | 4.04269 | 16393 ft | 378 kts | 232° |
| 2026-05-07 19:10 | 40.02768 | 4.01510 | 16113 ft | 377 kts | 232° |
| 2026-05-07 19:10 | 40.01216 | 3.98755 | 15832 ft | 376 kts | 232° |
| 2026-05-07 19:11 | 39.99670 | 3.96013 | 15541 ft | 375 kts | 232° |
| 2026-05-07 19:11 | 39.98128 | 3.93280 | 15262 ft | 374 kts | 232° |
| 2026-05-07 19:11 | 39.96583 | 3.90544 | 14978 ft | 374 kts | 232° |
| 2026-05-07 19:11 | 39.95040 | 3.87816 | 14699 ft | 374 kts | 232° |
| 2026-05-07 19:12 | 39.93498 | 3.85091 | 14425 ft | 373 kts | 232° |
| 2026-05-07 19:12 | 39.91955 | 3.82366 | 14134 ft | 373 kts | 232° |
| 2026-05-07 19:12 | 39.90413 | 3.79643 | 13861 ft | 372 kts | 232° |
| 2026-05-07 19:12 | 39.88880 | 3.76940 | 13556 ft | 371 kts | 232° |
| 2026-05-07 19:13 | 39.87349 | 3.74242 | 13249 ft | 370 kts | 232° |
| 2026-05-07 19:13 | 39.85819 | 3.71549 | 12964 ft | 369 kts | 232° |
| 2026-05-07 19:13 | 39.84301 | 3.68880 | 12675 ft | 366 kts | 232° |
| 2026-05-07 19:13 | 39.82791 | 3.66225 | 12402 ft | 365 kts | 232° |
| 2026-05-07 19:14 | 39.81276 | 3.63567 | 12107 ft | 365 kts | 232° |
| 2026-05-07 19:14 | 39.79766 | 3.60919 | 11837 ft | 362 kts | 232° |
| 2026-05-07 19:14 | 39.78272 | 3.58300 | 11569 ft | 360 kts | 232° |
| 2026-05-07 19:14 | 39.76794 | 3.55710 | 11293 ft | 353 kts | 232° |
| 2026-05-07 19:15 | 39.75349 | 3.53181 | 11030 ft | 344 kts | 231° |
| 2026-05-07 19:15 | 39.73938 | 3.50713 | 10778 ft | 336 kts | 232° |
| 2026-05-07 19:15 | 39.72564 | 3.48310 | 10571 ft | 327 kts | 231° |
| 2026-05-07 19:15 | 39.71232 | 3.45984 | 10487 ft | 315 kts | 232° |
| 2026-05-07 19:16 | 39.69950 | 3.43744 | 10384 ft | 304 kts | 232° |
| 2026-05-07 19:16 | 39.68865 | 3.41436 | 10291 ft | 295 kts | 241° |
| 2026-05-07 19:16 | 39.67965 | 3.39061 | 9856 ft | 299 kts | 243° |
| 2026-05-07 19:16 | 39.67090 | 3.36659 | 9790 ft | 288 kts | 243° |
| 2026-05-07 19:17 | 39.66211 | 3.34272 | 9287 ft | 293 kts | 242° |
| 2026-05-07 19:17 | 39.65322 | 3.31908 | 9059 ft | 288 kts | 242° |
| 2026-05-07 19:17 | 39.64439 | 3.29595 | 8768 ft | 286 kts | 242° |
| 2026-05-07 19:17 | 39.63561 | 3.27315 | 8564 ft | 280 kts | 241° |
| 2026-05-07 19:18 | 39.62695 | 3.25071 | 8337 ft | 277 kts | 242° |
| 2026-05-07 19:18 | 39.61836 | 3.22849 | 8118 ft | 275 kts | 241° |
| 2026-05-07 19:18 | 39.60980 | 3.20637 | 7912 ft | 275 kts | 242° |
| 2026-05-07 19:18 | 39.60124 | 3.18424 | 7710 ft | 276 kts | 242° |
| 2026-05-07 19:19 | 39.59261 | 3.16196 | 7497 ft | 277 kts | 242° |
| 2026-05-07 19:19 | 39.58396 | 3.13966 | 7283 ft | 277 kts | 242° |
| 2026-05-07 19:19 | 39.57531 | 3.11736 | 7053 ft | 275 kts | 242° |
| 2026-05-07 19:19 | 39.56677 | 3.09536 | 6848 ft | 271 kts | 242° |
| 2026-05-07 19:20 | 39.55831 | 3.07359 | 6655 ft | 270 kts | 242° |
| 2026-05-07 19:20 | 39.54987 | 3.05188 | 6448 ft | 270 kts | 242° |
| 2026-05-07 19:20 | 39.54146 | 3.03025 | 6245 ft | 267 kts | 242° |
| 2026-05-07 19:20 | 39.53318 | 3.00896 | 6023 ft | 262 kts | 242° |
| 2026-05-07 19:21 | 39.52505 | 2.98808 | 5825 ft | 258 kts | 242° |
| 2026-05-07 19:21 | 39.51701 | 2.96747 | 5632 ft | 255 kts | 241° |
| 2026-05-07 19:21 | 39.50912 | 2.94724 | 5432 ft | 249 kts | 242° |
| 2026-05-07 19:21 | 39.50143 | 2.92752 | 5246 ft | 242 kts | 241° |
| 2026-05-07 19:22 | 39.49399 | 2.90845 | 5054 ft | 232 kts | 242° |
| 2026-05-07 19:22 | 39.48689 | 2.89026 | 4998 ft | 220 kts | 242° |
| 2026-05-07 19:22 | 39.48240 | 2.87878 | 4982 ft | 212 kts | 242° |
| 2026-05-07 19:22 | 39.47589 | 2.86210 | 4981 ft | 205 kts | 242° |
| 2026-05-07 19:23 | 39.46964 | 2.84553 | 4985 ft | 205 kts | 242° |
| 2026-05-07 19:23 | 39.46342 | 2.82894 | 4983 ft | 206 kts | 243° |
| 2026-05-07 19:23 | 39.45707 | 2.81209 | 4852 ft | 211 kts | 242° |
| 2026-05-07 19:23 | 39.45057 | 2.79468 | 4600 ft | 216 kts | 243° |
| 2026-05-07 19:24 | 39.44400 | 2.77718 | 4348 ft | 216 kts | 242° |
| 2026-05-07 19:24 | 39.43754 | 2.75963 | 4110 ft | 215 kts | 243° |
| 2026-05-07 19:24 | 39.43118 | 2.74236 | 3883 ft | 211 kts | 242° |
| 2026-05-07 19:24 | 39.42500 | 2.72542 | 3677 ft | 204 kts | 243° |
| 2026-05-07 19:25 | 39.41917 | 2.70955 | 3714 ft | 187 kts | 243° |
| 2026-05-07 19:25 | 39.41351 | 2.69425 | 3782 ft | 201 kts | 243° |
| 2026-05-07 19:25 | 39.40706 | 2.67737 | 3630 ft | 212 kts | 243° |
| 2026-05-07 19:25 | 39.40058 | 2.66047 | 3489 ft | 208 kts | 243° |
| 2026-05-07 19:26 | 39.39426 | 2.64406 | 3337 ft | 202 kts | 243° |
| 2026-05-07 19:26 | 39.38808 | 2.62793 | 3191 ft | 200 kts | 243° |
| 2026-05-07 19:26 | 39.38223 | 2.61175 | 3044 ft | 198 kts | 253° |
| 2026-05-07 19:26 | 39.38201 | 2.59435 | 3009 ft | 191 kts | 281° |
| 2026-05-07 19:27 | 39.38449 | 2.57740 | 3001 ft | 191 kts | 283° |
| 2026-05-07 19:27 | 39.38676 | 2.56116 | 3004 ft | 176 kts | 282° |
| 2026-05-07 19:27 | 39.38883 | 2.54614 | 3009 ft | 165 kts | 282° |
| 2026-05-07 19:27 | 39.39082 | 2.53112 | 2974 ft | 177 kts | 282° |
| 2026-05-07 19:28 | 39.39288 | 2.51541 | 2955 ft | 176 kts | 282° |
| 2026-05-07 19:28 | 39.39583 | 2.50050 | 2953 ft | 167 kts | 304° |
| 2026-05-07 19:28 | 39.40425 | 2.49202 | 2987 ft | 153 kts | 352° |
| 2026-05-07 19:28 | 39.41450 | 2.49412 | 3000 ft | 152 kts | 28° |
| 2026-05-07 19:29 | 39.42411 | 2.49995 | 3018 ft | 153 kts | 26° |
| 2026-05-07 19:29 | 39.43377 | 2.50552 | 2989 ft | 151 kts | 26° |
| 2026-05-07 19:29 | 39.44341 | 2.51106 | 2986 ft | 153 kts | 26° |
| 2026-05-07 19:29 | 39.45253 | 2.51779 | 2983 ft | 151 kts | 49° |
| 2026-05-07 19:30 | 39.45870 | 2.52865 | 2982 ft | 150 kts | 53° |
| 2026-05-07 19:30 | 39.46522 | 2.53913 | 2998 ft | 149 kts | 53° |
| 2026-05-07 19:30 | 39.47130 | 2.55002 | 2883 ft | 150 kts | 58° |
| 2026-05-07 19:30 | 39.47707 | 2.56159 | 2700 ft | 154 kts | 58° |
| 2026-05-07 19:31 | 39.48255 | 2.57307 | 2475 ft | 146 kts | 59° |
| 2026-05-07 19:31 | 39.48790 | 2.58439 | 2296 ft | 150 kts | 60° |
| 2026-05-07 19:31 | 39.49325 | 2.59578 | 2113 ft | 146 kts | 59° |
| 2026-05-07 19:31 | 39.49862 | 2.60721 | 1893 ft | 149 kts | 59° |
| 2026-05-07 19:32 | 39.50392 | 2.61850 | 1711 ft | 146 kts | 59° |
| 2026-05-07 19:32 | 39.50923 | 2.62980 | 1498 ft | 147 kts | 59° |
| 2026-05-07 19:32 | 39.51463 | 2.64103 | 1307 ft | 147 kts | 58° |
| 2026-05-07 19:32 | 39.51996 | 2.65238 | 1101 ft | 147 kts | 60° |
| 2026-05-07 19:33 | 39.52522 | 2.66378 | 884 ft | 149 kts | 60° |
| 2026-05-07 19:33 | 39.53024 | 2.67543 | 706 ft | 146 kts | 58° |
| 2026-05-07 19:33 | 39.53585 | 2.68625 | 524 ft | 146 kts | 57° |
| 2026-05-07 19:33 | 39.54102 | 2.69782 | 295 ft | 146 kts | 55° |
| 2026-05-07 19:34 | 39.54636 | 2.70879 | 103 ft | 143 kts | 59° |
| 2026-05-07 19:34 | 39.55134 | 2.71947 | 29 ft | 122 kts | 58° |
| 2026-05-07 19:34 | 39.55463 | 2.72644 | 29 ft | 64 kts | 58° |
| 2026-05-07 19:34 | 39.55633 | 2.73001 | 29 ft | 26 kts | 58° |
| 2026-05-07 19:35 | 39.55710 | 2.73189 | 29 ft | 23 kts | 73° |
| 2026-05-07 19:35 | 39.55719 | 2.73324 | 29 ft | 0 kts | 90° |
| 2026-05-07 19:36 | 39.55719 | 2.73326 | 29 ft | 3 kts | 90° |
| 2026-05-07 19:36 | 39.55719 | 2.73382 | 29 ft | 7 kts | 90° |
| 2026-05-07 19:36 | 39.55706 | 2.73438 | 29 ft | 7 kts | 134° |
| 2026-05-07 19:37 | 39.55664 | 2.73469 | 29 ft | 7 kts | 151° |
| 2026-05-07 19:37 | 39.55618 | 2.73503 | 29 ft | 8 kts | 148° |
| 2026-05-07 19:37 | 39.55569 | 2.73546 | 29 ft | 9 kts | 147° |
| 2026-05-07 19:37 | 39.55517 | 2.73574 | 29 ft | 5 kts | 185° |
| 2026-05-07 19:38 | 39.55488 | 2.73533 | 29 ft | 8 kts | 238° |
| 2026-05-07 19:38 | 39.55459 | 2.73474 | 29 ft | 7 kts | 238° |
| 2026-05-07 19:38 | 39.55428 | 2.73449 | 29 ft | 4 kts | 178° |
| 2026-05-07 19:38 | 39.55388 | 2.73477 | 29 ft | 9 kts | 140° |
| 2026-05-07 19:39 | 39.55339 | 2.73512 | 29 ft | 7 kts | 152° |
| 2026-05-07 19:39 | 39.55301 | 2.73527 | 29 ft | 4 kts | 198° |
| 2026-05-07 19:39 | 39.55282 | 2.73505 | 29 ft | 4 kts | 233° |
| 2026-05-07 19:39 | 39.55269 | 2.73478 | 29 ft | 4 kts | 238° |
| 2026-05-07 19:40 | 39.55262 | 2.73463 | 29 ft | 0 kts | 238° |